createdAt,value
2018-04-12T00:00:16.712Z,16.03
2018-04-12T00:02:44.207Z,12.00
2018-04-12T00:05:11.678Z,15.30
2018-04-12T00:07:39.162Z,16.17
2018-04-12T00:10:06.655Z,14.63
2018-04-12T00:12:34.129Z,14.33
2018-04-12T00:15:02.371Z,11.90
2018-04-12T00:17:29.861Z,15.20
2018-04-12T00:19:57.325Z,13.10
2018-04-12T00:22:24.803Z,17.63
2018-04-12T00:24:52.289Z,14.90
2018-04-12T00:27:19.758Z,12.90
2018-04-12T00:29:47.344Z,15.80
2018-04-12T00:32:14.820Z,14.70
2018-04-12T00:34:42.316Z,14.57
2018-04-12T00:37:09.802Z,16.73
2018-04-12T00:39:37.333Z,14.93
2018-04-12T00:42:04.792Z,14.00
2018-04-12T00:44:32.253Z,16.27
2018-04-12T00:46:59.772Z,15.30
2018-04-12T00:49:27.286Z,18.00
2018-04-12T00:51:54.786Z,16.80
2018-04-12T00:54:22.297Z,15.90
2018-04-12T00:56:49.823Z,15.30
2018-04-12T00:59:17.266Z,16.27
2018-04-12T01:01:44.756Z,16.50
2018-04-12T01:04:12.720Z,15.30
2018-04-12T01:06:40.211Z,12.77
2018-04-12T01:09:08.455Z,17.77
2018-04-12T01:11:35.936Z,12.37
2018-04-12T01:14:03.428Z,12.77
2018-04-12T01:16:30.895Z,11.67
2018-04-12T01:18:58.459Z,13.63
2018-04-12T01:21:25.949Z,12.63
2018-04-12T01:23:53.434Z,15.53
2018-04-12T01:26:21.684Z,19.03
2018-04-12T01:28:49.166Z,15.63
2018-04-12T01:31:17.401Z,13.60
2018-04-12T01:33:44.872Z,17.23
2018-04-12T01:36:12.381Z,16.90
2018-04-12T01:38:39.839Z,17.97
2018-04-12T01:41:07.333Z,17.40
2018-04-12T01:43:34.807Z,15.40
2018-04-12T01:46:02.316Z,19.17
2018-04-12T01:48:29.807Z,21.23
2018-04-12T01:50:57.293Z,21.43
2018-04-12T01:53:24.793Z,22.13
2018-04-12T01:55:52.289Z,21.90
2018-04-12T01:58:19.795Z,22.43
2018-04-12T02:00:47.263Z,21.00
2018-04-12T02:03:14.779Z,21.87
2018-04-12T02:05:42.260Z,18.83
2018-04-12T02:08:10.515Z,19.77
2018-04-12T02:10:38.000Z,27.90
2018-04-12T02:13:05.518Z,21.77
2018-04-12T02:15:32.999Z,25.90
2018-04-12T02:18:00.493Z,28.30
2018-04-12T02:20:27.963Z,30.70
2018-04-12T02:22:55.887Z,32.13
2018-04-12T02:25:24.154Z,36.57
2018-04-12T02:27:51.642Z,31.10
2018-04-12T02:30:19.121Z,30.30
2018-04-12T02:32:46.622Z,33.37
2018-04-12T02:35:14.873Z,29.57
2018-04-12T02:37:42.398Z,37.20
2018-04-12T02:40:09.863Z,42.20
2018-04-12T02:42:37.346Z,41.93
2018-04-12T02:45:04.834Z,48.77
2018-04-12T02:47:33.061Z,46.97
2018-04-12T02:50:00.563Z,46.43
2018-04-12T02:52:28.025Z,42.10
2018-04-12T02:54:55.509Z,40.63
2018-04-12T02:57:22.980Z,46.57
2018-04-12T02:59:50.438Z,52.27
2018-04-12T03:02:17.948Z,46.90
2018-04-12T03:04:45.422Z,51.47
2018-04-12T03:07:13.663Z,52.33
2018-04-12T03:09:41.155Z,53.27
2018-04-12T03:12:08.629Z,57.47
2018-04-12T03:14:36.125Z,61.33
2018-04-12T03:17:03.609Z,66.47
2018-04-12T03:19:31.064Z,64.60
2018-04-12T03:21:58.563Z,67.97
2018-04-12T03:24:26.072Z,69.17
2018-04-12T03:26:53.550Z,65.57
2018-04-12T03:29:21.822Z,67.30
2018-04-12T03:31:49.305Z,64.80
2018-04-12T03:34:16.782Z,66.33
2018-04-12T03:36:44.270Z,65.73
2018-04-12T03:39:11.804Z,69.00
2018-04-12T03:41:39.288Z,72.77
2018-04-12T03:44:06.759Z,62.50
2018-04-12T03:46:34.253Z,68.13
2018-04-12T03:49:01.756Z,66.27
2018-04-12T03:51:29.258Z,64.10
2018-04-12T03:53:56.749Z,68.70
2018-04-12T03:56:24.226Z,69.57
2018-04-12T03:58:51.793Z,65.30
2018-04-12T04:01:19.277Z,74.43
2018-04-12T04:03:46.766Z,68.87
2018-04-12T04:06:14.238Z,69.57
2018-04-12T04:08:41.693Z,71.90
2018-04-12T04:11:09.183Z,75.67
2018-04-12T04:13:36.638Z,72.07
2018-04-12T04:16:15.997Z,69.27
2018-04-12T04:18:56.102Z,76.37
2018-04-12T04:21:23.582Z,75.13
2018-04-12T04:23:51.051Z,68.47
2018-04-12T04:26:18.525Z,62.67
2018-04-12T04:28:46.789Z,78.07
2018-04-12T04:31:14.287Z,66.07
2018-04-12T04:33:41.774Z,64.13
2018-04-12T04:36:09.273Z,72.50
2018-04-12T04:38:36.748Z,74.87
2018-04-12T04:41:04.218Z,75.13
2018-04-12T04:43:31.709Z,72.00
2018-04-12T04:45:59.515Z,83.43
2018-04-12T04:48:27.813Z,77.23
2018-04-12T04:50:55.325Z,69.90
2018-04-12T04:53:22.805Z,74.33
2018-04-12T04:55:50.280Z,65.53
2018-04-12T04:58:17.751Z,75.17
2018-04-12T05:00:45.228Z,79.30
2018-04-12T05:03:12.712Z,69.50
2018-04-12T05:05:40.215Z,75.90
2018-04-12T05:08:07.818Z,76.53
2018-04-12T05:10:35.301Z,89.07
2018-04-12T05:13:02.788Z,75.10
2018-04-12T05:15:30.306Z,85.90
2018-04-12T05:17:57.762Z,76.17
2018-04-12T05:20:25.268Z,74.67
2018-04-12T05:22:52.739Z,75.23
2018-04-12T05:25:20.223Z,78.77
2018-04-12T05:27:47.736Z,82.90
2018-04-12T05:30:15.222Z,79.13
2018-04-12T05:32:42.704Z,83.23
2018-04-12T05:35:10.165Z,81.03
2018-04-12T05:37:37.636Z,71.23
2018-04-12T05:40:05.130Z,77.03
2018-04-12T05:42:32.623Z,79.30
2018-04-12T05:45:00.136Z,74.73
2018-04-12T05:47:27.634Z,84.27
2018-04-12T05:49:55.099Z,75.23
2018-04-12T05:52:22.868Z,76.03
2018-04-12T05:54:50.383Z,78.07
2018-04-12T05:57:17.858Z,68.00
2018-04-12T05:59:45.349Z,77.70
2018-04-12T06:02:12.857Z,71.97
2018-04-12T06:04:40.353Z,81.77
2018-04-12T06:07:07.828Z,77.10
2018-04-12T06:09:35.325Z,77.60
2018-04-12T06:12:02.809Z,72.33
2018-04-12T06:14:30.290Z,70.77
2018-04-12T06:16:57.765Z,71.23
2018-04-12T06:19:25.235Z,72.70
2018-04-12T06:21:53.481Z,74.60
2018-04-12T06:24:20.973Z,76.37
2018-04-12T06:26:49.229Z,77.77
2018-04-12T06:29:16.717Z,71.80
2018-04-12T06:31:44.219Z,61.67
2018-04-12T06:34:12.132Z,63.67
2018-04-12T06:36:40.376Z,57.30
2018-04-12T06:39:07.928Z,58.80
2018-04-12T06:41:35.424Z,64.27
2018-04-12T06:44:03.663Z,60.10
2018-04-12T06:46:31.166Z,65.93
2018-04-12T06:48:58.649Z,67.90
2018-04-12T06:51:26.129Z,71.70
2018-04-12T06:53:53.662Z,67.30
2018-04-12T06:56:21.155Z,66.13
2018-04-12T06:58:48.672Z,62.40
2018-04-12T07:01:16.165Z,54.23
2018-04-12T07:03:44.418Z,58.90
2018-04-12T07:06:11.937Z,55.93
2018-04-12T07:08:39.420Z,57.40
2018-04-12T07:11:06.919Z,67.07
2018-04-12T07:13:34.417Z,55.30
2018-04-12T07:16:01.920Z,59.50
2018-04-12T07:18:29.404Z,61.53
2018-04-12T07:20:56.923Z,61.20
2018-04-12T07:23:24.407Z,70.80
2018-04-12T07:25:51.919Z,62.50
2018-04-12T07:28:20.174Z,63.50
2018-04-12T07:30:48.417Z,57.07
2018-04-12T07:33:15.926Z,63.90
2018-04-12T07:35:43.429Z,56.30
2018-04-12T07:38:10.900Z,55.37
2018-04-12T07:40:38.396Z,59.87
2018-04-12T07:43:05.891Z,57.83
2018-04-12T07:45:33.377Z,56.93
2018-04-12T07:48:00.845Z,55.30
2018-04-12T07:50:29.096Z,53.53
2018-04-12T07:52:56.623Z,56.47
2018-04-12T07:55:24.880Z,54.07
2018-04-12T07:57:53.117Z,45.40
2018-04-12T08:00:20.617Z,52.47
2018-04-12T08:02:48.097Z,50.20
2018-04-12T08:05:15.577Z,51.10
2018-04-12T08:07:43.084Z,49.60
2018-04-12T08:10:10.565Z,51.40
2018-04-12T08:12:38.044Z,51.67
2018-04-12T08:15:05.522Z,53.33
2018-04-12T08:17:33.054Z,47.07
2018-04-12T08:20:00.522Z,44.90
2018-04-12T08:22:28.013Z,45.63
2018-04-12T08:24:55.490Z,51.33
2018-04-12T08:27:23.002Z,45.00
2018-04-12T08:29:50.484Z,45.47
2018-04-12T08:32:18.719Z,48.50
2018-04-12T08:34:46.216Z,41.30
2018-04-12T08:37:14.451Z,40.10
2018-04-12T08:39:41.958Z,46.60
2018-04-12T08:42:09.439Z,42.63
2018-04-12T08:44:36.945Z,41.30
2018-04-12T08:47:04.460Z,38.07
2018-04-12T08:49:31.932Z,33.03
2018-04-12T08:51:59.426Z,39.73
2018-04-12T08:54:27.675Z,38.67
2018-04-12T08:56:55.158Z,31.13
2018-04-12T08:59:23.458Z,33.23
2018-04-12T09:01:50.941Z,38.47
2018-04-12T09:04:18.445Z,28.73
2018-04-12T09:06:45.908Z,34.30
2018-04-12T09:09:14.158Z,27.07
2018-04-12T09:11:41.658Z,31.50
2018-04-12T09:14:09.140Z,27.93
2018-04-12T09:16:36.635Z,24.90
2018-04-12T09:19:04.125Z,25.07
2018-04-12T09:21:32.758Z,20.07
2018-04-12T09:24:00.251Z,15.67
2018-04-12T09:26:27.767Z,19.43
2018-04-12T09:28:55.271Z,18.17
2018-04-12T09:31:22.780Z,17.00
2018-04-12T09:33:50.271Z,13.97
2018-04-12T09:36:17.770Z,21.77
2018-04-12T09:38:45.283Z,23.07
2018-04-12T09:41:12.767Z,18.30
2018-04-12T09:43:40.276Z,17.17
2018-04-12T09:46:07.770Z,20.40
2018-04-12T09:48:35.260Z,22.43
2018-04-12T09:51:02.772Z,19.20
2018-04-12T09:53:30.275Z,14.43
2018-04-12T09:55:57.765Z,21.27
2018-04-12T09:58:25.271Z,15.73
2018-04-12T10:00:55.578Z,22.67
2018-04-12T10:03:23.084Z,17.13
2018-04-12T10:05:56.325Z,17.47
2018-04-12T10:08:28.609Z,16.80
2018-04-12T10:10:56.102Z,14.17
2018-04-12T10:13:23.583Z,14.93
2018-04-12T10:15:51.079Z,16.07
2018-04-12T10:18:19.255Z,15.83
2018-04-12T10:20:46.787Z,14.87
2018-04-12T10:23:15.092Z,20.80
2018-04-12T10:25:43.383Z,17.40
2018-04-12T10:28:11.631Z,18.30
2018-04-12T10:30:39.125Z,16.63
2018-04-12T10:33:06.631Z,18.07
2018-04-12T10:35:34.117Z,19.93
2018-04-12T10:38:01.599Z,18.80
2018-04-12T10:40:29.110Z,18.33
2018-04-12T10:42:56.586Z,19.67
2018-04-12T10:45:24.054Z,17.43
2018-04-12T10:47:51.569Z,15.80
2018-04-12T10:50:19.043Z,21.70
2018-04-12T10:52:46.526Z,16.97
2018-04-12T10:55:14.813Z,16.40
2018-04-12T10:57:43.069Z,18.20
2018-04-12T11:00:10.546Z,20.83
2018-04-12T11:02:38.071Z,18.80
2018-04-12T11:05:05.560Z,20.10
2018-04-12T11:07:33.054Z,19.50
2018-04-12T11:10:00.542Z,18.60
2018-04-12T11:12:28.034Z,18.23
2018-04-12T11:14:56.286Z,19.40
2018-04-12T11:17:23.772Z,20.00
2018-04-12T11:19:51.268Z,16.87
2018-04-12T11:22:18.755Z,18.83
2018-04-12T11:24:46.279Z,21.20
2018-04-12T11:27:13.757Z,18.60
2018-04-12T11:29:41.260Z,18.80
2018-04-12T11:32:08.775Z,19.43
2018-04-12T11:34:36.301Z,21.10
2018-04-12T11:37:03.806Z,24.87
2018-04-12T11:39:31.319Z,21.83
2018-04-12T11:41:58.802Z,19.47
2018-04-12T11:44:26.282Z,20.73
2018-04-12T11:46:53.790Z,20.50
2018-04-12T11:49:21.258Z,20.57
2018-04-12T11:51:48.759Z,18.60
2018-04-12T11:54:16.254Z,21.07
2018-04-12T11:56:43.797Z,21.83
2018-04-12T11:59:11.266Z,19.43
2018-04-12T12:01:38.806Z,21.70
2018-04-12T12:04:06.251Z,18.77
2018-04-12T12:06:34.509Z,20.90
2018-04-12T12:09:02.019Z,17.43
2018-04-12T12:11:29.533Z,20.43
2018-04-12T12:13:57.047Z,25.57
2018-04-12T12:16:24.587Z,22.07
2018-04-12T12:18:52.082Z,21.70
2018-04-12T12:21:19.578Z,23.03
2018-04-12T12:23:47.888Z,21.10
2018-04-12T12:26:16.144Z,26.43
2018-04-12T12:28:44.408Z,23.90
2018-04-12T12:31:12.663Z,20.30
2018-04-12T12:33:40.162Z,21.57
2018-04-12T12:36:08.436Z,23.03
2018-04-12T12:38:35.949Z,22.13
2018-04-12T12:41:03.477Z,20.83
2018-04-12T12:43:31.733Z,24.20
2018-04-12T12:45:59.187Z,25.40
2018-04-12T12:48:38.215Z,20.90
2018-04-12T12:51:05.714Z,20.83
2018-04-12T12:53:44.933Z,19.17
2018-04-12T12:56:18.339Z,19.47
2018-04-12T12:58:45.881Z,22.73
2018-04-12T13:01:19.182Z,18.33
2018-04-12T13:03:52.434Z,19.03
2018-04-12T13:06:26.615Z,20.43
2018-04-12T13:08:54.116Z,17.13
2018-04-12T13:11:22.367Z,18.87
2018-04-12T13:13:49.863Z,15.60
2018-04-12T13:16:17.364Z,15.73
2018-04-12T13:18:50.492Z,13.53
2018-04-12T13:21:24.773Z,13.20
2018-04-12T13:23:52.275Z,12.20
2018-04-12T13:26:25.704Z,17.40
2018-04-12T13:29:04.830Z,13.80
2018-04-12T13:31:32.356Z,12.67
2018-04-12T13:34:00.605Z,11.10
2018-04-12T13:36:28.101Z,14.17
2018-04-12T13:38:55.589Z,12.60
2018-04-12T13:41:23.079Z,14.03
2018-04-12T13:43:56.377Z,11.60
2018-04-12T13:46:23.855Z,13.00
2018-04-12T13:48:51.339Z,11.17
2018-04-12T13:51:18.863Z,13.07
2018-04-12T13:53:47.110Z,11.13
2018-04-12T13:56:20.500Z,12.03
2018-04-12T13:58:47.986Z,17.33
2018-04-12T14:01:22.327Z,11.20
2018-04-12T14:03:49.822Z,12.47
2018-04-12T14:06:17.317Z,13.50
2018-04-12T14:08:45.619Z,12.77
2018-04-12T14:11:13.194Z,11.10
2018-04-12T14:13:46.532Z,14.10
2018-04-12T14:16:14.024Z,10.57
2018-04-12T14:18:41.492Z,9.70
2018-04-12T14:21:09.001Z,9.67
2018-04-12T14:23:54.029Z,9.27
2018-04-12T14:26:21.530Z,10.60
2018-04-12T14:28:54.744Z,8.40
2018-04-12T14:31:22.279Z,11.33
2018-04-12T14:33:49.743Z,8.80
2018-04-12T14:36:17.310Z,9.30
2018-04-12T14:38:50.353Z,9.10
2018-04-12T14:41:23.674Z,11.00
2018-04-12T14:43:51.228Z,9.93
2018-04-12T14:46:18.693Z,8.63
2018-04-12T14:48:57.761Z,10.93
2018-04-12T14:51:25.251Z,7.37
2018-04-12T14:53:52.747Z,7.50
2018-04-12T14:56:20.257Z,8.50
2018-04-12T14:58:47.754Z,9.33
2018-04-12T15:01:15.234Z,6.23
2018-04-12T15:03:48.606Z,12.17
2018-04-12T15:06:22.003Z,6.83
2018-04-12T15:08:49.506Z,9.10
2018-04-12T15:11:28.597Z,6.60
2018-04-12T15:13:56.088Z,7.07
2018-04-12T15:16:23.568Z,7.07
2018-04-12T15:18:51.078Z,6.63
2018-04-12T15:21:24.325Z,6.60
2018-04-12T15:23:51.798Z,6.47
2018-04-12T15:26:25.126Z,6.50
2018-04-12T15:28:52.625Z,10.20
2018-04-12T15:31:20.115Z,9.60
2018-04-12T15:33:53.563Z,6.30
2018-04-12T15:36:21.044Z,6.60
2018-04-12T15:38:48.541Z,6.20
2018-04-12T15:41:16.038Z,7.90
2018-04-12T15:43:43.515Z,5.63
2018-04-12T15:46:11.050Z,7.20
2018-04-12T15:48:50.221Z,6.80
2018-04-12T15:51:29.366Z,6.83
2018-04-12T15:54:02.760Z,10.40
2018-04-12T15:56:37.059Z,6.20
2018-04-12T15:59:04.546Z,6.63
2018-04-12T16:01:32.048Z,12.53
2018-04-12T16:03:59.531Z,6.73
2018-04-12T16:06:27.073Z,5.80
2018-04-12T16:08:54.543Z,5.57
2018-04-12T16:11:28.399Z,7.37
2018-04-12T16:13:56.631Z,5.30
2018-04-12T16:16:24.126Z,9.07
2018-04-12T16:18:51.640Z,11.10
2018-04-12T16:21:19.124Z,6.70
2018-04-12T16:23:52.438Z,6.13
2018-04-12T16:26:25.852Z,6.93
2018-04-12T16:28:54.142Z,113.90
2018-04-12T16:31:21.622Z,18.83
2018-04-12T16:33:49.094Z,9.40
2018-04-12T16:36:16.616Z,4.83
2018-04-12T16:38:44.087Z,5.07
2018-04-12T16:41:11.606Z,6.00
2018-04-12T16:43:39.106Z,11.13
2018-04-12T16:46:12.362Z,12.00
2018-04-12T16:48:46.392Z,6.30
2018-04-12T16:51:19.714Z,6.30
2018-04-12T16:53:47.185Z,4.93
2018-04-12T16:56:14.925Z,5.77
2018-04-12T16:58:42.430Z,7.13
2018-04-12T17:01:10.030Z,5.90
2018-04-12T17:03:43.345Z,5.23
2018-04-12T17:06:10.823Z,9.00
2018-04-12T17:08:38.310Z,5.93
2018-04-12T17:11:06.561Z,5.80
2018-04-12T17:13:40.069Z,16.30
2018-04-12T17:16:07.532Z,29.37
2018-04-12T17:18:35.023Z,6.23
2018-04-12T17:21:02.510Z,6.37
2018-04-12T17:23:35.974Z,5.20
2018-04-12T17:26:09.229Z,5.03
2018-04-12T17:28:42.489Z,3.60
2018-04-12T17:31:09.950Z,3.83
2018-04-12T17:33:37.462Z,4.90
2018-04-12T17:36:05.714Z,3.80
2018-04-12T17:38:33.294Z,5.60
2018-04-12T17:41:01.558Z,5.20
2018-04-12T17:43:29.462Z,6.50
2018-04-12T17:45:56.934Z,3.73
2018-04-12T17:48:29.985Z,4.70
2018-04-12T17:50:58.227Z,3.60
2018-04-12T17:53:25.784Z,4.20
2018-04-12T17:55:59.163Z,10.60
2018-04-12T17:58:26.659Z,7.43
2018-04-12T18:00:54.391Z,3.93
2018-04-12T18:03:28.597Z,6.60
2018-04-12T18:05:56.192Z,4.17
2018-04-12T18:08:23.658Z,4.77
2018-04-12T18:10:51.170Z,4.40
2018-04-12T18:13:24.608Z,6.50
2018-04-12T18:15:52.966Z,4.50
2018-04-12T18:18:20.459Z,6.13
2018-04-12T18:20:48.766Z,4.90
2018-04-12T18:23:16.288Z,4.43
2018-04-12T18:25:44.549Z,4.43
2018-04-12T18:28:17.608Z,4.20
2018-04-12T18:30:45.136Z,9.20
2018-04-12T18:33:18.636Z,4.23
2018-04-12T18:35:51.739Z,7.23
2018-04-12T18:38:19.226Z,4.70
2018-04-12T18:40:46.950Z,5.23
2018-04-12T18:43:14.456Z,4.00
2018-04-12T18:45:48.451Z,4.17
2018-04-12T18:48:15.971Z,4.93
2018-04-12T18:50:49.082Z,8.33
2018-04-12T18:53:16.622Z,6.30
2018-04-12T18:55:44.106Z,6.40
2018-04-12T18:58:17.440Z,6.43
2018-04-12T19:00:44.956Z,6.03
2018-04-12T19:03:18.794Z,5.50
2018-04-12T19:05:46.297Z,5.23
2018-04-12T19:08:13.826Z,4.40
2018-04-12T19:10:42.100Z,5.30
2018-04-12T19:13:09.596Z,4.90
2018-04-12T19:15:43.017Z,7.20
2018-04-12T19:18:10.494Z,11.67
2018-04-12T19:20:43.784Z,9.17
2018-04-12T19:23:11.321Z,5.97
2018-04-12T19:25:38.844Z,9.40
2018-04-12T19:28:06.341Z,8.13
2018-04-12T19:30:39.661Z,6.83
2018-04-12T19:33:13.021Z,6.80
2018-04-12T19:35:46.036Z,6.20
2018-04-12T19:38:13.565Z,5.80
2018-04-12T19:40:46.672Z,6.07
2018-04-12T19:43:20.139Z,5.43
2018-04-12T19:45:59.395Z,6.77
2018-04-12T19:48:26.937Z,4.37
2018-04-12T19:51:00.239Z,5.20
2018-04-12T19:53:33.662Z,4.87
2018-04-12T19:56:01.187Z,4.83
2018-04-12T19:58:28.693Z,5.57
2018-04-12T20:00:56.206Z,5.77
2018-04-12T20:03:29.277Z,6.00
2018-04-12T20:06:02.895Z,8.10
2018-04-12T20:08:36.194Z,10.60
2018-04-12T20:11:03.726Z,7.10
2018-04-12T20:13:37.143Z,6.70
2018-04-12T20:16:10.475Z,8.00
2018-04-12T20:18:37.947Z,7.30
2018-04-12T20:21:11.276Z,7.80
2018-04-12T20:23:44.492Z,6.97
2018-04-12T20:26:17.895Z,7.13
2018-04-12T20:28:45.696Z,7.47
2018-04-12T20:31:19.196Z,8.37
2018-04-12T20:33:47.508Z,11.13
2018-04-12T20:36:26.698Z,7.57
2018-04-12T20:38:54.201Z,7.60
2018-04-12T20:41:21.717Z,8.43
2018-04-12T20:43:50.553Z,6.83
2018-04-12T20:46:18.044Z,6.97
2018-04-12T20:48:51.141Z,8.63
2018-04-12T20:51:18.675Z,6.63
2018-04-12T20:53:51.978Z,8.73
2018-04-12T20:56:19.499Z,8.07
2018-04-12T20:58:47.006Z,8.40
2018-04-12T21:01:20.237Z,9.00
2018-04-12T21:03:47.743Z,8.37
2018-04-12T21:06:15.233Z,7.90
2018-04-12T21:08:42.727Z,10.13
2018-04-12T21:11:16.112Z,8.00
2018-04-12T21:13:49.413Z,10.80
2018-04-12T21:16:22.788Z,8.97
2018-04-12T21:18:51.054Z,9.67
2018-04-12T21:21:18.534Z,11.03
2018-04-12T21:23:52.718Z,11.43
2018-04-12T21:26:21.018Z,11.23
2018-04-12T21:28:48.438Z,8.87
2018-04-12T21:31:15.967Z,11.40
2018-04-12T21:33:49.175Z,10.47
2018-04-12T21:36:16.688Z,13.80
2018-04-12T21:38:56.659Z,15.73
2018-04-12T21:41:24.133Z,11.00
2018-04-12T21:43:58.065Z,12.73
2018-04-12T21:46:25.562Z,10.20
2018-04-12T21:48:59.385Z,11.87
2018-04-12T21:51:33.231Z,11.60
2018-04-12T21:54:12.412Z,9.30
2018-04-12T21:56:39.911Z,11.93
2018-04-12T21:59:13.241Z,13.63
2018-04-12T22:01:40.971Z,10.43
2018-04-12T22:04:08.432Z,11.17
2018-04-12T22:06:41.552Z,12.17
2018-04-12T22:09:14.926Z,12.77
2018-04-12T22:11:48.350Z,9.77
2018-04-12T22:14:15.805Z,13.30
2018-04-12T22:16:43.287Z,11.47
2018-04-12T22:19:11.527Z,12.83
2018-04-12T22:21:39.007Z,13.10
2018-04-12T22:24:07.252Z,15.37
2018-04-12T22:26:34.742Z,15.50
2018-04-12T22:29:14.678Z,13.77
2018-04-12T22:31:48.056Z,16.40
2018-04-12T22:34:15.546Z,13.43
2018-04-12T22:36:43.788Z,9.77
2018-04-12T22:39:17.077Z,14.10
2018-04-12T22:41:44.578Z,8.73
2018-04-12T22:44:12.289Z,9.20
2018-04-12T22:46:39.763Z,8.60
2018-04-12T22:49:07.247Z,8.63
2018-04-12T22:51:35.529Z,9.47
2018-04-12T22:54:09.325Z,8.83
2018-04-12T22:56:37.602Z,8.10
2018-04-12T22:59:05.841Z,11.37
2018-04-12T23:01:39.050Z,10.00
2018-04-12T23:04:06.537Z,11.73
2018-04-12T23:06:34.059Z,11.20
2018-04-12T23:09:01.502Z,13.50
2018-04-12T23:11:34.565Z,13.40
2018-04-12T23:14:02.053Z,15.90
2018-04-12T23:16:29.550Z,13.40
2018-04-12T23:19:03.626Z,12.40
2018-04-12T23:21:31.081Z,15.67
2018-04-12T23:24:04.431Z,12.83
2018-04-12T23:26:37.837Z,16.63
2018-04-12T23:29:11.273Z,14.50
2018-04-12T23:31:38.727Z,15.13
2018-04-12T23:34:12.119Z,19.60
2018-04-12T23:36:39.619Z,14.57
2018-04-12T23:39:07.100Z,15.53
2018-04-12T23:41:40.469Z,13.90
2018-04-12T23:44:14.592Z,17.20
2018-04-12T23:46:42.864Z,15.73
2018-04-12T23:49:11.122Z,20.57
2018-04-12T23:51:38.599Z,17.33
2018-04-12T23:54:12.406Z,17.63
2018-04-12T23:56:39.874Z,18.50
2018-04-12T23:59:12.941Z,19.37
